sensor_id;sensor_type;location;lat;lon;timestamp;temperature;humidity
5802;DHT22;2927;49.366;8.530;2023-10-09T00:02:09;13.40;99.90
5802;DHT22;2927;49.366;8.530;2023-10-09T00:04:37;13.40;99.90
5802;DHT22;2927;49.366;8.530;2023-10-09T00:07:03;13.40;99.90
5802;DHT22;2927;49.366;8.530;2023-10-09T00:09:34;13.40;99.90
5802;DHT22;2927;49.366;8.530;2023-10-09T00:12:15;13.40;99.90
5802;DHT22;2927;49.366;8.530;2023-10-09T00:14:41;13.40;99.90
5802;DHT22;2927;49.366;8.530;2023-10-09T00:17:14;13.40;99.90
5802;DHT22;2927;49.366;8.530;2023-10-09T00:19:39;13.40;99.90
5802;DHT22;2927;49.366;8.530;2023-10-09T00:22:08;13.40;99.90
5802;DHT22;2927;49.366;8.530;2023-10-09T00:24:36;13.30;99.90
5802;DHT22;2927;49.366;8.530;2023-10-09T00:27:10;13.30;99.90
5802;DHT22;2927;49.366;8.530;2023-10-09T00:29:41;13.40;99.90
5802;DHT22;2927;49.366;8.530;2023-10-09T00:32:14;13.30;99.90
5802;DHT22;2927;49.366;8.530;2023-10-09T00:34:52;13.40;99.90
5802;DHT22;2927;49.366;8.530;2023-10-09T00:37:17;13.30;99.90
5802;DHT22;2927;49.366;8.530;2023-10-09T00:39:51;13.30;99.90
5802;DHT22;2927;49.366;8.530;2023-10-09T00:42:24;13.40;99.90
5802;DHT22;2927;49.366;8.530;2023-10-09T00:45:01;13.30;99.90
5802;DHT22;2927;49.366;8.530;2023-10-09T00:47:31;13.30;99.90
5802;DHT22;2927;49.366;8.530;2023-10-09T00:50:03;13.30;99.90
5802;DHT22;2927;49.366;8.530;2023-10-09T00:52:37;13.30;99.90
5802;DHT22;2927;49.366;8.530;2023-10-09T00:55:17;13.20;99.90
5802;DHT22;2927;49.366;8.530;2023-10-09T00:57:48;13.30;99.90
5802;DHT22;2927;49.366;8.530;2023-10-09T01:00:16;13.20;99.90
5802;DHT22;2927;49.366;8.530;2023-10-09T01:03:01;13.20;99.90
5802;DHT22;2927;49.366;8.530;2023-10-09T01:05:47;13.30;99.90
5802;DHT22;2927;49.366;8.530;2023-10-09T01:08:31;13.30;99.90
5802;DHT22;2927;49.366;8.530;2023-10-09T01:11:06;13.30;99.90
5802;DHT22;2927;49.366;8.530;2023-10-09T01:16:07;13.30;99.90
5802;DHT22;2927;49.366;8.530;2023-10-09T01:18:39;13.30;99.90
5802;DHT22;2927;49.366;8.530;2023-10-09T01:21:09;13.40;64.20
5802;DHT22;2927;49.366;8.530;2023-10-09T01:23:44;13.30;14.90
5802;DHT22;2927;49.366;8.530;2023-10-09T01:29:00;13.40;1.00
5802;DHT22;2927;49.366;8.530;2023-10-09T01:31:27;13.40;1.00
5802;DHT22;2927;49.366;8.530;2023-10-09T01:33:53;13.40;1.00
5802;DHT22;2927;49.366;8.530;2023-10-09T01:36:27;13.50;1.00
5802;DHT22;2927;49.366;8.530;2023-10-09T01:39:00;13.50;1.00
5802;DHT22;2927;49.366;8.530;2023-10-09T01:41:27;13.50;1.00
5802;DHT22;2927;49.366;8.530;2023-10-09T01:43:52;13.50;1.00
5802;DHT22;2927;49.366;8.530;2023-10-09T01:46:25;13.50;1.00
5802;DHT22;2927;49.366;8.530;2023-10-09T01:48:51;13.40;1.00
5802;DHT22;2927;49.366;8.530;2023-10-09T01:51:19;13.40;1.00
5802;DHT22;2927;49.366;8.530;2023-10-09T01:53:45;13.40;1.00
5802;DHT22;2927;49.366;8.530;2023-10-09T01:56:19;13.40;1.00
5802;DHT22;2927;49.366;8.530;2023-10-09T01:58:45;13.40;1.00
5802;DHT22;2927;49.366;8.530;2023-10-09T02:01:12;13.40;1.00
5802;DHT22;2927;49.366;8.530;2023-10-09T02:03:39;13.40;1.00
5802;DHT22;2927;49.366;8.530;2023-10-09T02:06:07;13.40;1.00
5802;DHT22;2927;49.366;8.530;2023-10-09T02:08:54;13.40;1.00
5802;DHT22;2927;49.366;8.530;2023-10-09T02:11:21;13.40;1.00
5802;DHT22;2927;49.366;8.530;2023-10-09T02:14:02;13.40;1.00
5802;DHT22;2927;49.366;8.530;2023-10-09T02:16:30;13.40;1.00
5802;DHT22;2927;49.366;8.530;2023-10-09T02:19:07;13.40;1.00
5802;DHT22;2927;49.366;8.530;2023-10-09T02:21:34;13.30;1.00
5802;DHT22;2927;49.366;8.530;2023-10-09T02:24:05;13.30;1.00
5802;DHT22;2927;49.366;8.530;2023-10-09T02:26:52;13.30;1.00
5802;DHT22;2927;49.366;8.530;2023-10-09T02:29:17;13.30;1.00
5802;DHT22;2927;49.366;8.530;2023-10-09T02:31:43;13.30;1.00
5802;DHT22;2927;49.366;8.530;2023-10-09T02:34:12;13.30;1.00
5802;DHT22;2927;49.366;8.530;2023-10-09T02:36:41;13.30;12.20
5802;DHT22;2927;49.366;8.530;2023-10-09T02:39:15;13.40;1.00
5802;DHT22;2927;49.366;8.530;2023-10-09T02:41:57;13.40;1.00
5802;DHT22;2927;49.366;8.530;2023-10-09T02:44:27;13.40;1.00
5802;DHT22;2927;49.366;8.530;2023-10-09T02:47:04;13.40;1.00
5802;DHT22;2927;49.366;8.530;2023-10-09T02:49:33;13.40;1.00
5802;DHT22;2927;49.366;8.530;2023-10-09T02:51:59;13.40;1.00
5802;DHT22;2927;49.366;8.530;2023-10-09T02:54:26;13.50;1.00
5802;DHT22;2927;49.366;8.530;2023-10-09T02:57:01;13.40;1.00
5802;DHT22;2927;49.366;8.530;2023-10-09T02:59:33;13.40;1.00
5802;DHT22;2927;49.366;8.530;2023-10-09T03:01:59;13.40;1.00
5802;DHT22;2927;49.366;8.530;2023-10-09T03:04:28;13.40;1.00
5802;DHT22;2927;49.366;8.530;2023-10-09T03:06:55;13.40;1.00
5802;DHT22;2927;49.366;8.530;2023-10-09T03:09:23;13.40;1.00
5802;DHT22;2927;49.366;8.530;2023-10-09T03:12:02;13.40;1.00
5802;DHT22;2927;49.366;8.530;2023-10-09T03:14:29;13.40;1.00
5802;DHT22;2927;49.366;8.530;2023-10-09T03:16:56;13.40;1.00
5802;DHT22;2927;49.366;8.530;2023-10-09T03:19:26;13.50;1.00
5802;DHT22;2927;49.366;8.530;2023-10-09T03:21:52;13.40;1.00
5802;DHT22;2927;49.366;8.530;2023-10-09T03:24:18;13.40;1.00
5802;DHT22;2927;49.366;8.530;2023-10-09T03:26:45;13.40;1.00
5802;DHT22;2927;49.366;8.530;2023-10-09T03:29:11;13.40;7.90
5802;DHT22;2927;49.366;8.530;2023-10-09T03:31:37;13.40;27.20
5802;DHT22;2927;49.366;8.530;2023-10-09T03:34:03;13.30;1.00
5802;DHT22;2927;49.366;8.530;2023-10-09T03:36:29;13.20;26.40
5802;DHT22;2927;49.366;8.530;2023-10-09T03:39:03;13.20;99.90
5802;DHT22;2927;49.366;8.530;2023-10-09T03:41:43;13.20;99.90
5802;DHT22;2927;49.366;8.530;2023-10-09T03:44:15;13.20;99.90
5802;DHT22;2927;49.366;8.530;2023-10-09T03:46:46;13.20;99.90
5802;DHT22;2927;49.366;8.530;2023-10-09T03:49:12;13.10;99.90
5802;DHT22;2927;49.366;8.530;2023-10-09T03:51:39;13.10;99.90
5802;DHT22;2927;49.366;8.530;2023-10-09T03:54:05;13.00;99.90
5802;DHT22;2927;49.366;8.530;2023-10-09T03:56:34;13.10;99.90
5802;DHT22;2927;49.366;8.530;2023-10-09T03:59:00;13.10;99.90
5802;DHT22;2927;49.366;8.530;2023-10-09T04:01:27;13.10;99.90
5802;DHT22;2927;49.366;8.530;2023-10-09T04:04:06;13.00;99.90
5802;DHT22;2927;49.366;8.530;2023-10-09T04:06:38;13.10;99.90
5802;DHT22;2927;49.366;8.530;2023-10-09T04:09:11;13.20;99.90
5802;DHT22;2927;49.366;8.530;2023-10-09T04:11:46;13.20;99.90
5802;DHT22;2927;49.366;8.530;2023-10-09T04:14:13;13.20;99.90
5802;DHT22;2927;49.366;8.530;2023-10-09T04:16:51;13.20;99.90
5802;DHT22;2927;49.366;8.530;2023-10-09T04:19:18;13.20;99.90
5802;DHT22;2927;49.366;8.530;2023-10-09T04:21:48;13.10;99.90
5802;DHT22;2927;49.366;8.530;2023-10-09T04:24:14;13.10;99.90
5802;DHT22;2927;49.366;8.530;2023-10-09T04:26:41;13.10;99.90
5802;DHT22;2927;49.366;8.530;2023-10-09T04:29:13;13.20;99.90
5802;DHT22;2927;49.366;8.530;2023-10-09T04:31:55;13.30;99.90
5802;DHT22;2927;49.366;8.530;2023-10-09T04:34:25;13.30;77.10
5802;DHT22;2927;49.366;8.530;2023-10-09T04:36:57;13.40;50.80
5802;DHT22;2927;49.366;8.530;2023-10-09T04:39:29;13.40;1.00
5802;DHT22;2927;49.366;8.530;2023-10-09T04:41:55;13.40;1.00
5802;DHT22;2927;49.366;8.530;2023-10-09T04:44:44;13.40;1.00
5802;DHT22;2927;49.366;8.530;2023-10-09T04:47:28;13.50;1.00
5802;DHT22;2927;49.366;8.530;2023-10-09T04:50:07;13.50;1.00
5802;DHT22;2927;49.366;8.530;2023-10-09T04:52:51;13.50;1.00
5802;DHT22;2927;49.366;8.530;2023-10-09T04:55:17;13.50;1.00
5802;DHT22;2927;49.366;8.530;2023-10-09T04:57:50;13.60;1.00
5802;DHT22;2927;49.366;8.530;2023-10-09T05:00:34;13.60;1.00
5802;DHT22;2927;49.366;8.530;2023-10-09T05:03:02;13.60;1.00
5802;DHT22;2927;49.366;8.530;2023-10-09T05:05:38;13.60;1.00
5802;DHT22;2927;49.366;8.530;2023-10-09T05:08:17;13.60;1.00
5802;DHT22;2927;49.366;8.530;2023-10-09T05:10:55;13.70;1.00
5802;DHT22;2927;49.366;8.530;2023-10-09T05:16:08;13.70;1.00
5802;DHT22;2927;49.366;8.530;2023-10-09T05:18:55;13.60;1.00
5802;DHT22;2927;49.366;8.530;2023-10-09T05:21:26;13.60;1.00
5802;DHT22;2927;49.366;8.530;2023-10-09T05:23:57;13.70;1.00
5802;DHT22;2927;49.366;8.530;2023-10-09T05:29:17;13.70;1.00
5802;DHT22;2927;49.366;8.530;2023-10-09T05:31:46;13.70;1.00
5802;DHT22;2927;49.366;8.530;2023-10-09T05:34:23;13.70;1.00
5802;DHT22;2927;49.366;8.530;2023-10-09T05:36:49;13.70;1.00
5802;DHT22;2927;49.366;8.530;2023-10-09T05:39:14;13.70;1.00
5802;DHT22;2927;49.366;8.530;2023-10-09T05:41:45;13.60;1.00
5802;DHT22;2927;49.366;8.530;2023-10-09T05:44:13;13.70;1.00
5802;DHT22;2927;49.366;8.530;2023-10-09T05:46:57;13.70;1.00
5802;DHT22;2927;49.366;8.530;2023-10-09T05:49:41;13.70;1.00
5802;DHT22;2927;49.366;8.530;2023-10-09T05:52:21;13.70;1.00
5802;DHT22;2927;49.366;8.530;2023-10-09T05:54:58;13.70;1.00
5802;DHT22;2927;49.366;8.530;2023-10-09T05:57:42;13.70;1.00
5802;DHT22;2927;49.366;8.530;2023-10-09T06:00:26;13.70;1.00
5802;DHT22;2927;49.366;8.530;2023-10-09T06:03:11;13.80;1.00
5802;DHT22;2927;49.366;8.530;2023-10-09T06:05:46;13.70;1.00
5802;DHT22;2927;49.366;8.530;2023-10-09T06:08:29;13.70;1.00
5802;DHT22;2927;49.366;8.530;2023-10-09T06:11:23;13.80;1.00
5802;DHT22;2927;49.366;8.530;2023-10-09T06:14:00;13.80;1.00
5802;DHT22;2927;49.366;8.530;2023-10-09T06:16:35;13.80;1.00
5802;DHT22;2927;49.366;8.530;2023-10-09T06:19:14;13.90;99.90
5802;DHT22;2927;49.366;8.530;2023-10-09T06:21:55;13.90;99.90
5802;DHT22;2927;49.366;8.530;2023-10-09T06:24:40;14.00;1.00
5802;DHT22;2927;49.366;8.530;2023-10-09T06:27:15;14.10;1.00
5802;DHT22;2927;49.366;8.530;2023-10-09T06:30:01;14.10;99.90
5802;DHT22;2927;49.366;8.530;2023-10-09T06:32:45;14.10;1.00
5802;DHT22;2927;49.366;8.530;2023-10-09T06:35:34;14.10;99.90
5802;DHT22;2927;49.366;8.530;2023-10-09T06:38:01;14.20;1.00
5802;DHT22;2927;49.366;8.530;2023-10-09T06:43:05;14.20;1.00
5802;DHT22;2927;49.366;8.530;2023-10-09T06:45:36;14.30;99.90
5802;DHT22;2927;49.366;8.530;2023-10-09T06:48:11;14.40;1.00
5802;DHT22;2927;49.366;8.530;2023-10-09T06:51:09;14.60;1.00
5802;DHT22;2927;49.366;8.530;2023-10-09T06:53:59;14.60;99.90
5802;DHT22;2927;49.366;8.530;2023-10-09T06:56:30;14.60;1.00
5802;DHT22;2927;49.366;8.530;2023-10-09T06:59:00;14.60;1.00
5802;DHT22;2927;49.366;8.530;2023-10-09T07:01:44;14.70;1.00
5802;DHT22;2927;49.366;8.530;2023-10-09T07:04:12;14.70;99.90
5802;DHT22;2927;49.366;8.530;2023-10-09T07:06:45;14.80;63.70
5802;DHT22;2927;49.366;8.530;2023-10-09T07:09:11;14.80;99.90
5802;DHT22;2927;49.366;8.530;2023-10-09T07:11:44;14.80;90.30
5802;DHT22;2927;49.366;8.530;2023-10-09T07:14:29;14.90;1.00
5802;DHT22;2927;49.366;8.530;2023-10-09T07:16:59;14.90;1.00
5802;DHT22;2927;49.366;8.530;2023-10-09T07:19:30;15.00;1.00
5802;DHT22;2927;49.366;8.530;2023-10-09T07:22:05;15.00;1.00
5802;DHT22;2927;49.366;8.530;2023-10-09T07:24:41;15.10;1.00
5802;DHT22;2927;49.366;8.530;2023-10-09T07:27:16;15.20;99.90
5802;DHT22;2927;49.366;8.530;2023-10-09T07:29:43;15.30;1.00
5802;DHT22;2927;49.366;8.530;2023-10-09T07:32:15;15.40;1.00
5802;DHT22;2927;49.366;8.530;2023-10-09T07:34:46;15.50;99.90
5802;DHT22;2927;49.366;8.530;2023-10-09T07:37:19;15.60;99.90
5802;DHT22;2927;49.366;8.530;2023-10-09T07:39:45;15.60;47.40
5802;DHT22;2927;49.366;8.530;2023-10-09T07:42:25;15.70;1.00
5802;DHT22;2927;49.366;8.530;2023-10-09T07:45:06;15.80;1.00
5802;DHT22;2927;49.366;8.530;2023-10-09T07:47:58;15.90;1.00
5802;DHT22;2927;49.366;8.530;2023-10-09T07:50:35;15.90;99.90
5802;DHT22;2927;49.366;8.530;2023-10-09T07:53:09;16.00;99.90
5802;DHT22;2927;49.366;8.530;2023-10-09T07:55:44;16.10;99.90
5802;DHT22;2927;49.366;8.530;2023-10-09T07:58:20;16.20;1.30
5802;DHT22;2927;49.366;8.530;2023-10-09T08:00:53;16.30;1.00
5802;DHT22;2927;49.366;8.530;2023-10-09T08:03:31;16.40;1.00
5802;DHT22;2927;49.366;8.530;2023-10-09T08:05:59;16.40;1.00
5802;DHT22;2927;49.366;8.530;2023-10-09T08:08:44;16.40;1.00
5802;DHT22;2927;49.366;8.530;2023-10-09T08:11:32;16.50;1.00
5802;DHT22;2927;49.366;8.530;2023-10-09T08:14:20;16.50;1.00
5802;DHT22;2927;49.366;8.530;2023-10-09T08:16:58;16.60;1.00
5802;DHT22;2927;49.366;8.530;2023-10-09T08:19:50;16.70;1.00
5802;DHT22;2927;49.366;8.530;2023-10-09T08:22:29;16.80;99.90
5802;DHT22;2927;49.366;8.530;2023-10-09T08:24:55;16.90;99.90
5802;DHT22;2927;49.366;8.530;2023-10-09T08:27:25;17.00;28.80
5802;DHT22;2927;49.366;8.530;2023-10-09T08:30:00;17.10;1.00
5802;DHT22;2927;49.366;8.530;2023-10-09T08:32:48;17.30;1.00
5802;DHT22;2927;49.366;8.530;2023-10-09T08:35:36;17.60;1.00
5802;DHT22;2927;49.366;8.530;2023-10-09T08:38:15;17.80;1.00
5802;DHT22;2927;49.366;8.530;2023-10-09T08:40:42;18.10;1.00
5802;DHT22;2927;49.366;8.530;2023-10-09T08:43:15;18.30;1.00
5802;DHT22;2927;49.366;8.530;2023-10-09T08:45:55;18.50;1.00
5802;DHT22;2927;49.366;8.530;2023-10-09T08:48:27;18.70;99.90
5802;DHT22;2927;49.366;8.530;2023-10-09T08:50:56;18.90;99.90
5802;DHT22;2927;49.366;8.530;2023-10-09T08:53:24;19.10;99.90
5802;DHT22;2927;49.366;8.530;2023-10-09T08:55:53;19.40;99.90
5802;DHT22;2927;49.366;8.530;2023-10-09T08:58:19;19.70;99.90
5802;DHT22;2927;49.366;8.530;2023-10-09T09:00:52;20.00;99.90
5802;DHT22;2927;49.366;8.530;2023-10-09T09:03:25;20.30;99.90
5802;DHT22;2927;49.366;8.530;2023-10-09T09:06:01;20.70;99.90
5802;DHT22;2927;49.366;8.530;2023-10-09T09:08:31;20.80;99.90
5802;DHT22;2927;49.366;8.530;2023-10-09T09:11:07;20.80;99.90
5802;DHT22;2927;49.366;8.530;2023-10-09T09:14:00;20.90;99.90
5802;DHT22;2927;49.366;8.530;2023-10-09T09:16:33;21.10;99.90
5802;DHT22;2927;49.366;8.530;2023-10-09T09:19:07;21.20;99.90
5802;DHT22;2927;49.366;8.530;2023-10-09T09:21:51;21.10;99.90
5802;DHT22;2927;49.366;8.530;2023-10-09T09:24:21;21.10;99.90
5802;DHT22;2927;49.366;8.530;2023-10-09T09:26:48;21.10;99.90
5802;DHT22;2927;49.366;8.530;2023-10-09T09:29:46;21.00;99.90
5802;DHT22;2927;49.366;8.530;2023-10-09T09:32:29;20.80;99.90
5802;DHT22;2927;49.366;8.530;2023-10-09T09:35:02;20.70;99.90
5802;DHT22;2927;49.366;8.530;2023-10-09T09:37:31;20.60;99.90
5802;DHT22;2927;49.366;8.530;2023-10-09T09:40:09;20.60;99.90
5802;DHT22;2927;49.366;8.530;2023-10-09T09:42:58;20.50;99.90
5802;DHT22;2927;49.366;8.530;2023-10-09T09:45:38;20.50;99.90
5802;DHT22;2927;49.366;8.530;2023-10-09T09:48:05;20.30;99.90
5802;DHT22;2927;49.366;8.530;2023-10-09T09:50:40;20.30;99.90
5802;DHT22;2927;49.366;8.530;2023-10-09T09:53:14;20.30;99.90
5802;DHT22;2927;49.366;8.530;2023-10-09T09:58:21;20.40;99.90
5802;DHT22;2927;49.366;8.530;2023-10-09T10:00:51;20.60;99.90
5802;DHT22;2927;49.366;8.530;2023-10-09T10:03:26;20.90;99.90
5802;DHT22;2927;49.366;8.530;2023-10-09T10:05:55;21.10;99.90
5802;DHT22;2927;49.366;8.530;2023-10-09T10:08:23;21.30;99.90
5802;DHT22;2927;49.366;8.530;2023-10-09T10:10:57;21.30;99.90
5802;DHT22;2927;49.366;8.530;2023-10-09T10:16:15;21.40;99.90
5802;DHT22;2927;49.366;8.530;2023-10-09T10:21:45;21.30;99.90
5802;DHT22;2927;49.366;8.530;2023-10-09T10:29:43;21.00;99.90
5802;DHT22;2927;49.366;8.530;2023-10-09T10:32:11;20.90;99.90
5802;DHT22;2927;49.366;8.530;2023-10-09T10:37:34;21.00;99.90
5802;DHT22;2927;49.366;8.530;2023-10-09T10:40:06;21.00;99.90
5802;DHT22;2927;49.366;8.530;2023-10-09T10:42:49;21.00;99.90
5802;DHT22;2927;49.366;8.530;2023-10-09T10:45:35;21.00;99.90
5802;DHT22;2927;49.366;8.530;2023-10-09T10:48:04;21.00;99.90
5802;DHT22;2927;49.366;8.530;2023-10-09T10:50:40;21.10;99.90
5802;DHT22;2927;49.366;8.530;2023-10-09T10:53:14;21.30;99.90
5802;DHT22;2927;49.366;8.530;2023-10-09T10:58:22;21.70;99.90
5802;DHT22;2927;49.366;8.530;2023-10-09T11:01:01;21.80;99.90
5802;DHT22;2927;49.366;8.530;2023-10-09T11:03:42;21.90;99.90
5802;DHT22;2927;49.366;8.530;2023-10-09T11:06:30;22.00;99.90
5802;DHT22;2927;49.366;8.530;2023-10-09T11:09:06;22.00;99.90
5802;DHT22;2927;49.366;8.530;2023-10-09T11:11:49;22.10;99.90
5802;DHT22;2927;49.366;8.530;2023-10-09T11:14:16;22.20;99.90
5802;DHT22;2927;49.366;8.530;2023-10-09T11:16:49;22.40;92.10
5802;DHT22;2927;49.366;8.530;2023-10-09T11:19:20;22.40;58.70
5802;DHT22;2927;49.366;8.530;2023-10-09T11:21:59;22.80;37.50
5802;DHT22;2927;49.366;8.530;2023-10-09T11:24:31;22.90;34.20
5802;DHT22;2927;49.366;8.530;2023-10-09T11:27:04;22.90;1.00
5802;DHT22;2927;49.366;8.530;2023-10-09T11:29:33;23.00;1.00
5802;DHT22;2927;49.366;8.530;2023-10-09T11:32:09;23.30;1.00
5802;DHT22;2927;49.366;8.530;2023-10-09T11:34:49;23.20;1.00
5802;DHT22;2927;49.366;8.530;2023-10-09T11:37:20;23.30;1.00
5802;DHT22;2927;49.366;8.530;2023-10-09T11:39:54;23.30;1.00
5802;DHT22;2927;49.366;8.530;2023-10-09T11:42:22;23.30;1.00
5802;DHT22;2927;49.366;8.530;2023-10-09T11:45:21;23.10;1.00
5802;DHT22;2927;49.366;8.530;2023-10-09T11:47:55;23.00;1.00
5802;DHT22;2927;49.366;8.530;2023-10-09T11:50:52;23.00;1.00
5802;DHT22;2927;49.366;8.530;2023-10-09T11:53:42;23.00;1.00
5802;DHT22;2927;49.366;8.530;2023-10-09T11:56:15;23.00;1.00
5802;DHT22;2927;49.366;8.530;2023-10-09T11:58:49;23.10;1.00
5802;DHT22;2927;49.366;8.530;2023-10-09T12:01:18;23.30;1.00
5802;DHT22;2927;49.366;8.530;2023-10-09T12:03:49;23.30;1.00
5802;DHT22;2927;49.366;8.530;2023-10-09T12:06:16;23.50;1.00
5802;DHT22;2927;49.366;8.530;2023-10-09T12:08:45;23.60;1.00
5802;DHT22;2927;49.366;8.530;2023-10-09T12:11:12;23.90;1.00
5802;DHT22;2927;49.366;8.530;2023-10-09T12:13:40;24.10;1.00
5802;DHT22;2927;49.366;8.530;2023-10-09T12:16:08;24.10;1.00
5802;DHT22;2927;49.366;8.530;2023-10-09T12:18:34;24.30;1.00
5802;DHT22;2927;49.366;8.530;2023-10-09T12:21:01;24.50;1.00
5802;DHT22;2927;49.366;8.530;2023-10-09T12:23:30;24.50;1.00
5802;DHT22;2927;49.366;8.530;2023-10-09T12:26:04;24.50;1.00
5802;DHT22;2927;49.366;8.530;2023-10-09T12:28:30;24.50;1.00
5802;DHT22;2927;49.366;8.530;2023-10-09T12:30:59;24.60;1.00
5802;DHT22;2927;49.366;8.530;2023-10-09T12:33:29;24.60;1.00
5802;DHT22;2927;49.366;8.530;2023-10-09T12:35:55;24.90;1.00
5802;DHT22;2927;49.366;8.530;2023-10-09T12:38:26;25.00;1.00
5802;DHT22;2927;49.366;8.530;2023-10-09T12:41:06;24.70;1.00
5802;DHT22;2927;49.366;8.530;2023-10-09T12:43:56;24.60;1.00
5802;DHT22;2927;49.366;8.530;2023-10-09T12:46:24;24.40;1.00
5802;DHT22;2927;49.366;8.530;2023-10-09T12:48:54;24.20;1.00
5802;DHT22;2927;49.366;8.530;2023-10-09T12:51:21;24.20;1.00
5802;DHT22;2927;49.366;8.530;2023-10-09T12:53:51;24.20;1.00
5802;DHT22;2927;49.366;8.530;2023-10-09T12:56:22;24.30;1.00
5802;DHT22;2927;49.366;8.530;2023-10-09T12:58:48;24.30;1.00
5802;DHT22;2927;49.366;8.530;2023-10-09T13:01:22;24.40;1.00
5802;DHT22;2927;49.366;8.530;2023-10-09T13:03:48;24.50;1.00
5802;DHT22;2927;49.366;8.530;2023-10-09T13:06:15;24.60;1.00
5802;DHT22;2927;49.366;8.530;2023-10-09T13:08:41;24.60;1.00
5802;DHT22;2927;49.366;8.530;2023-10-09T13:11:09;24.70;1.00
5802;DHT22;2927;49.366;8.530;2023-10-09T13:13:42;24.80;1.00
5802;DHT22;2927;49.366;8.530;2023-10-09T13:18:39;24.80;1.00
5802;DHT22;2927;49.366;8.530;2023-10-09T13:21:05;24.80;1.00
5802;DHT22;2927;49.366;8.530;2023-10-09T13:23:31;24.80;1.00
5802;DHT22;2927;49.366;8.530;2023-10-09T13:26:12;24.90;1.00
5802;DHT22;2927;49.366;8.530;2023-10-09T13:28:59;24.80;1.00
5802;DHT22;2927;49.366;8.530;2023-10-09T13:31:26;24.80;1.00
5802;DHT22;2927;49.366;8.530;2023-10-09T13:33:55;25.00;1.00
5802;DHT22;2927;49.366;8.530;2023-10-09T13:36:22;25.10;1.00
5802;DHT22;2927;49.366;8.530;2023-10-09T13:39:05;25.20;1.00
5802;DHT22;2927;49.366;8.530;2023-10-09T13:44:24;25.00;1.00
5802;DHT22;2927;49.366;8.530;2023-10-09T13:46:53;24.80;1.00
5802;DHT22;2927;49.366;8.530;2023-10-09T13:49:18;24.60;1.00
5802;DHT22;2927;49.366;8.530;2023-10-09T13:51:48;24.70;1.00
5802;DHT22;2927;49.366;8.530;2023-10-09T13:54:16;24.50;1.00
5802;DHT22;2927;49.366;8.530;2023-10-09T13:56:54;24.50;1.00
5802;DHT22;2927;49.366;8.530;2023-10-09T13:59:21;24.30;1.00
5802;DHT22;2927;49.366;8.530;2023-10-09T14:01:49;24.30;1.00
5802;DHT22;2927;49.366;8.530;2023-10-09T14:04:14;24.30;1.00
5802;DHT22;2927;49.366;8.530;2023-10-09T14:06:44;24.40;1.00
5802;DHT22;2927;49.366;8.530;2023-10-09T14:09:10;24.30;1.00
5802;DHT22;2927;49.366;8.530;2023-10-09T14:11:58;24.40;1.00
5802;DHT22;2927;49.366;8.530;2023-10-09T14:14:44;24.40;1.00
5802;DHT22;2927;49.366;8.530;2023-10-09T14:17:20;24.30;1.00
5802;DHT22;2927;49.366;8.530;2023-10-09T14:19:50;24.40;1.00
5802;DHT22;2927;49.366;8.530;2023-10-09T14:22:17;24.50;1.00
5802;DHT22;2927;49.366;8.530;2023-10-09T14:24:44;24.50;1.00
5802;DHT22;2927;49.366;8.530;2023-10-09T14:27:11;24.60;1.00
5802;DHT22;2927;49.366;8.530;2023-10-09T14:29:46;24.60;1.00
5802;DHT22;2927;49.366;8.530;2023-10-09T14:32:12;24.60;1.00
5802;DHT22;2927;49.366;8.530;2023-10-09T14:34:44;24.60;1.00
5802;DHT22;2927;49.366;8.530;2023-10-09T14:37:16;24.60;1.00
5802;DHT22;2927;49.366;8.530;2023-10-09T14:39:44;24.70;1.00
5802;DHT22;2927;49.366;8.530;2023-10-09T14:42:17;24.70;1.00
5802;DHT22;2927;49.366;8.530;2023-10-09T14:44:43;24.70;1.00
5802;DHT22;2927;49.366;8.530;2023-10-09T14:47:10;24.70;1.00
5802;DHT22;2927;49.366;8.530;2023-10-09T14:49:37;24.70;1.00
5802;DHT22;2927;49.366;8.530;2023-10-09T14:52:09;24.70;1.00
5802;DHT22;2927;49.366;8.530;2023-10-09T14:54:37;24.80;1.00
5802;DHT22;2927;49.366;8.530;2023-10-09T14:57:07;24.80;1.00
5802;DHT22;2927;49.366;8.530;2023-10-09T14:59:33;24.70;1.00
5802;DHT22;2927;49.366;8.530;2023-10-09T15:01:59;24.70;1.00
5802;DHT22;2927;49.366;8.530;2023-10-09T15:04:25;24.70;1.00
5802;DHT22;2927;49.366;8.530;2023-10-09T15:06:52;24.70;1.00
5802;DHT22;2927;49.366;8.530;2023-10-09T15:09:17;24.70;1.00
5802;DHT22;2927;49.366;8.530;2023-10-09T15:11:53;24.60;1.00
5802;DHT22;2927;49.366;8.530;2023-10-09T15:14:19;24.60;1.00
5802;DHT22;2927;49.366;8.530;2023-10-09T15:16:45;24.50;1.00
5802;DHT22;2927;49.366;8.530;2023-10-09T15:19:11;24.50;1.00
5802;DHT22;2927;49.366;8.530;2023-10-09T15:21:37;24.50;1.00
5802;DHT22;2927;49.366;8.530;2023-10-09T15:24:10;24.40;1.00
5802;DHT22;2927;49.366;8.530;2023-10-09T15:26:38;24.30;1.00
5802;DHT22;2927;49.366;8.530;2023-10-09T15:29:03;24.30;1.00
5802;DHT22;2927;49.366;8.530;2023-10-09T15:31:32;24.20;1.00
5802;DHT22;2927;49.366;8.530;2023-10-09T15:33:59;24.20;1.00
5802;DHT22;2927;49.366;8.530;2023-10-09T15:36:24;24.10;1.00
5802;DHT22;2927;49.366;8.530;2023-10-09T15:38:54;24.00;1.00
5802;DHT22;2927;49.366;8.530;2023-10-09T15:41:26;23.90;1.00
5802;DHT22;2927;49.366;8.530;2023-10-09T15:43:56;23.80;1.00
5802;DHT22;2927;49.366;8.530;2023-10-09T15:46:22;23.70;1.00
5802;DHT22;2927;49.366;8.530;2023-10-09T15:48:48;23.60;1.00
5802;DHT22;2927;49.366;8.530;2023-10-09T15:51:16;23.50;1.00
5802;DHT22;2927;49.366;8.530;2023-10-09T15:53:43;23.40;1.00
5802;DHT22;2927;49.366;8.530;2023-10-09T15:56:09;23.40;1.00
5802;DHT22;2927;49.366;8.530;2023-10-09T15:58:40;23.40;1.00
5802;DHT22;2927;49.366;8.530;2023-10-09T16:01:13;23.20;1.00
5802;DHT22;2927;49.366;8.530;2023-10-09T16:03:40;23.10;1.00
5802;DHT22;2927;49.366;8.530;2023-10-09T16:06:06;23.10;1.00
5802;DHT22;2927;49.366;8.530;2023-10-09T16:08:34;23.00;1.00
5802;DHT22;2927;49.366;8.530;2023-10-09T16:11:02;22.90;1.00
5802;DHT22;2927;49.366;8.530;2023-10-09T16:13:27;22.80;1.00
5802;DHT22;2927;49.366;8.530;2023-10-09T16:15:53;22.80;1.00
5802;DHT22;2927;49.366;8.530;2023-10-09T16:18:21;22.70;1.00
5802;DHT22;2927;49.366;8.530;2023-10-09T16:20:47;22.60;1.00
5802;DHT22;2927;49.366;8.530;2023-10-09T16:23:12;22.50;1.00
5802;DHT22;2927;49.366;8.530;2023-10-09T16:25:38;22.40;1.00
5802;DHT22;2927;49.366;8.530;2023-10-09T16:28:04;22.30;1.00
5802;DHT22;2927;49.366;8.530;2023-10-09T16:30:30;22.20;1.00
5802;DHT22;2927;49.366;8.530;2023-10-09T16:32:55;22.10;1.00
5802;DHT22;2927;49.366;8.530;2023-10-09T16:35:25;22.10;1.00
5802;DHT22;2927;49.366;8.530;2023-10-09T16:37:51;22.00;1.00
5802;DHT22;2927;49.366;8.530;2023-10-09T16:40:21;21.90;1.00
5802;DHT22;2927;49.366;8.530;2023-10-09T16:42:48;21.70;1.00
5802;DHT22;2927;49.366;8.530;2023-10-09T16:45:18;21.60;1.00
5802;DHT22;2927;49.366;8.530;2023-10-09T16:47:46;21.60;1.00
5802;DHT22;2927;49.366;8.530;2023-10-09T16:50:12;21.50;1.00
5802;DHT22;2927;49.366;8.530;2023-10-09T16:52:39;21.30;1.00
5802;DHT22;2927;49.366;8.530;2023-10-09T16:55:08;21.30;1.00
5802;DHT22;2927;49.366;8.530;2023-10-09T16:57:40;21.10;1.00
5802;DHT22;2927;49.366;8.530;2023-10-09T17:00:25;21.00;1.00
5802;DHT22;2927;49.366;8.530;2023-10-09T17:03:01;20.80;1.00
5802;DHT22;2927;49.366;8.530;2023-10-09T17:05:36;20.80;1.00
5802;DHT22;2927;49.366;8.530;2023-10-09T17:08:16;20.60;1.00
5802;DHT22;2927;49.366;8.530;2023-10-09T17:10:44;20.40;1.00
5802;DHT22;2927;49.366;8.530;2023-10-09T17:13:11;20.30;1.00
5802;DHT22;2927;49.366;8.530;2023-10-09T17:15:37;20.20;1.00
5802;DHT22;2927;49.366;8.530;2023-10-09T17:18:03;20.10;1.00
5802;DHT22;2927;49.366;8.530;2023-10-09T17:20:29;19.90;1.00
5802;DHT22;2927;49.366;8.530;2023-10-09T17:22:56;19.90;1.00
5802;DHT22;2927;49.366;8.530;2023-10-09T17:25:25;19.70;1.00